Time;durP1;ratioP1;P1;durP2;ratioP2;P2;SDS_P1;SDS_P2;PMS_P1;PMS_P2;Temp;Humidity;BMP_temperature;BMP_pressure;BME280_temperature;BME280_humidity;BME280_pressure;Samples;Min_cycle;Max_cycle;Signal;HPM_P1;HPM_P2
2021/07/18 00:02:03;0.00;0.00;0.62;0.00;0.00;0.62;2.77;2.20;;;27.70;35.80;;;;;;2265475;61;20593;-60
2021/07/18 00:04:50;0.00;0.00;0.62;0.00;0.00;0.62;6.37;2.20;;;27.70;35.80;;;;;;2265841;61;20372;-60
2021/07/18 00:07:34;0.00;0.00;0.62;0.00;0.00;0.62;3.57;2.47;;;27.70;35.90;;;;;;2265828;61;20373;-60
2021/07/18 00:10:19;0.00;0.00;0.62;0.00;0.00;0.62;3.40;2.30;;;27.70;36.00;;;;;;2265722;61;20356;-60
2021/07/18 00:13:03;0.00;0.00;0.62;0.00;0.00;0.62;3.17;2.40;;;27.70;36.10;;;;;;2266201;61;20771;-60
2021/07/18 00:15:49;0.00;0.00;0.62;0.00;0.00;0.62;3.20;2.00;;;27.60;36.10;;;;;;2265257;61;20740;-60
2021/07/18 00:18:36;0.00;0.00;0.62;0.00;0.00;0.62;3.00;2.40;;;27.70;36.30;;;;;;2265742;61;20609;-61
2021/07/18 00:21:20;0.00;0.00;0.62;0.00;0.00;0.62;3.90;2.23;;;27.60;36.20;;;;;;2266166;61;20709;-63
2021/07/18 00:24:05;0.00;0.00;0.62;0.00;0.00;0.62;3.33;2.60;;;27.60;36.30;;;;;;2265261;61;20365;-61
2021/07/18 00:26:50;0.00;0.00;0.62;0.00;0.00;0.62;3.97;2.10;;;27.60;36.30;;;;;;2265839;61;20384;-60
2021/07/18 00:29:35;0.00;0.00;0.62;0.00;0.00;0.62;4.27;2.57;;;27.60;36.50;;;;;;2265866;61;20360;-60
2021/07/18 00:32:19;0.00;0.00;0.62;0.00;0.00;0.62;5.60;2.80;;;27.60;36.50;;;;;;2265885;61;20364;-61
2021/07/18 00:35:07;0.00;0.00;0.62;0.00;0.00;0.62;4.40;2.87;;;27.60;36.60;;;;;;2266103;61;20721;-61
2021/07/18 00:37:51;0.00;0.00;0.62;0.00;0.00;0.62;6.30;3.27;;;27.60;36.80;;;;;;2265148;61;20757;-60
2021/07/18 00:40:36;0.00;0.00;0.62;0.00;0.00;0.62;4.53;2.80;;;27.50;36.80;;;;;;2265864;61;20422;-60
2021/07/18 00:43:20;0.00;0.00;0.62;0.00;0.00;0.62;3.07;2.30;;;27.50;36.80;;;;;;2265927;61;20581;-60
2021/07/18 00:46:06;0.00;0.00;0.62;0.00;0.00;0.62;3.33;2.60;;;27.50;36.70;;;;;;2265088;61;20368;-60
2021/07/18 00:48:50;0.00;0.00;0.62;0.00;0.00;0.62;3.87;2.53;;;27.50;36.70;;;;;;2265968;61;20381;-60
2021/07/18 00:51:36;0.00;0.00;0.62;0.00;0.00;0.62;5.00;2.77;;;27.50;36.80;;;;;;2265708;61;20385;-60
2021/07/18 00:54:21;0.00;0.00;0.62;0.00;0.00;0.62;3.70;2.53;;;27.50;36.90;;;;;;2265525;61;20411;-61
2021/07/18 00:57:06;0.00;0.00;0.62;0.00;0.00;0.62;5.70;2.90;;;27.50;36.90;;;;;;2265815;61;20384;-61
2021/07/18 00:59:52;0.00;0.00;0.62;0.00;0.00;0.62;4.90;2.80;;;27.50;37.10;;;;;;2265097;61;20361;-59
2021/07/18 01:02:38;0.00;0.00;0.62;0.00;0.00;0.62;4.83;2.80;;;27.40;37.00;;;;;;2265605;61;20423;-60
2021/07/18 01:05:23;0.00;0.00;0.62;0.00;0.00;0.62;4.90;2.73;;;27.40;37.10;;;;;;2265893;61;20356;-61
2021/07/18 01:08:10;0.00;0.00;0.62;0.00;0.00;0.62;3.10;2.80;;;27.40;37.20;;;;;;2265104;61;20448;-61
2021/07/18 01:10:55;0.00;0.00;0.62;0.00;0.00;0.62;3.93;2.83;;;27.30;37.20;;;;;;2265742;61;20805;-60
2021/07/18 01:13:39;0.00;0.00;0.62;0.00;0.00;0.62;2.80;2.40;;;27.30;37.20;;;;;;2265524;61;20388;-60
2021/07/18 01:16:24;0.00;0.00;0.62;0.00;0.00;0.62;3.30;2.40;;;27.30;37.20;;;;;;2265255;61;20399;-60
2021/07/18 01:19:09;0.00;0.00;0.62;0.00;0.00;0.62;4.37;2.77;;;27.20;37.20;;;;;;2265718;61;20836;-60
2021/07/18 01:21:58;0.00;0.00;0.62;0.00;0.00;0.62;3.70;3.10;;;27.20;37.30;;;;;;2264897;61;20411;-61
2021/07/18 01:24:43;0.00;0.00;0.62;0.00;0.00;0.62;3.50;2.90;;;27.20;37.30;;;;;;2265272;61;20737;-60
2021/07/18 01:27:28;0.00;0.00;0.62;0.00;0.00;0.62;6.40;2.70;;;27.30;37.40;;;;;;2265805;61;20579;-60
2021/07/18 01:30:14;0.00;0.00;0.62;0.00;0.00;0.62;5.27;2.53;;;27.30;37.50;;;;;;2264981;61;20365;-61
2021/07/18 01:32:58;0.00;0.00;0.62;0.00;0.00;0.62;3.27;2.97;;;27.30;37.50;;;;;;2265705;61;20407;-61
2021/07/18 01:35:43;0.00;0.00;0.62;0.00;0.00;0.62;4.70;3.40;;;27.20;37.40;;;;;;2265582;61;20787;-60
2021/07/18 01:38:29;0.00;0.00;0.62;0.00;0.00;0.62;4.87;2.93;;;27.20;37.60;;;;;;2265486;61;20411;-61
2021/07/18 01:41:13;0.00;0.00;0.62;0.00;0.00;0.62;4.40;3.80;;;27.30;37.60;;;;;;2265595;61;20732;-61
2021/07/18 01:43:58;0.00;0.00;0.62;0.00;0.00;0.62;5.03;3.40;;;27.20;37.60;;;;;;2264464;61;20361;-60
2021/07/18 01:46:43;0.00;0.00;0.62;0.00;0.00;0.62;5.43;4.20;;;27.30;37.70;;;;;;2265595;61;20452;-61
2021/07/18 01:49:27;0.00;0.00;0.62;0.00;0.00;0.62;7.80;3.87;;;27.30;37.80;;;;;;2265806;61;20353;-61
2021/07/18 01:52:12;0.00;0.00;0.62;0.00;0.00;0.62;5.77;3.90;;;27.30;37.80;;;;;;2265054;61;20368;-60
2021/07/18 01:54:58;0.00;0.00;0.62;0.00;0.00;0.62;6.77;3.90;;;27.30;37.70;;;;;;2265625;61;20642;-61
2021/07/18 01:57:42;0.00;0.00;0.62;0.00;0.00;0.62;3.97;3.57;;;27.30;37.70;;;;;;2265658;61;20435;-61
2021/07/18 02:00:27;0.00;0.00;0.62;0.00;0.00;0.62;6.87;4.33;;;27.30;37.70;;;;;;2265478;61;20637;-61
2021/07/18 02:03:12;0.00;0.00;0.62;0.00;0.00;0.62;6.37;4.73;;;27.30;37.70;;;;;;2265317;61;20408;-61
2021/07/18 02:05:56;0.00;0.00;0.62;0.00;0.00;0.62;5.83;3.90;;;27.30;37.80;;;;;;2265471;61;20388;-61
2021/07/18 02:08:41;0.00;0.00;0.62;0.00;0.00;0.62;4.10;3.70;;;27.30;37.70;;;;;;2265758;61;20357;-61
2021/07/18 02:11:27;0.00;0.00;0.62;0.00;0.00;0.62;5.87;4.87;;;27.30;37.90;;;;;;2265633;61;20356;-60
2021/07/18 02:14:12;0.00;0.00;0.62;0.00;0.00;0.62;4.40;3.87;;;27.30;37.90;;;;;;2265086;61;20732;-60
2021/07/18 02:16:56;0.00;0.00;0.62;0.00;0.00;0.62;4.43;3.47;;;27.30;37.90;;;;;;2265455;61;20736;-61
2021/07/18 02:19:41;0.00;0.00;0.62;0.00;0.00;0.62;5.67;3.90;;;27.30;37.90;;;;;;2265711;61;20422;-61
2021/07/18 02:22:36;0.00;0.00;0.62;0.00;0.00;0.62;6.30;4.17;;;27.30;37.90;;;;;;2264932;61;20441;-61
2021/07/18 02:25:25;0.00;0.00;0.62;0.00;0.00;0.62;6.47;4.67;;;27.30;37.90;;;;;;2265254;61;20349;-62
2021/07/18 02:28:10;0.00;0.00;0.62;0.00;0.00;0.62;4.20;3.67;;;27.30;37.90;;;;;;2265743;61;20373;-61
2021/07/18 02:30:55;0.00;0.00;0.62;0.00;0.00;0.62;5.67;4.00;;;27.30;37.90;;;;;;2265928;61;20476;-61
2021/07/18 02:33:40;0.00;0.00;0.62;0.00;0.00;0.62;4.23;3.83;;;27.30;37.90;;;;;;2266356;61;20679;-60
2021/07/18 02:36:24;0.00;0.00;0.62;0.00;0.00;0.62;6.60;3.97;;;27.30;38.00;;;;;;2265466;61;20637;-62
2021/07/18 02:39:09;0.00;0.00;0.62;0.00;0.00;0.62;7.50;4.20;;;27.30;38.00;;;;;;2265994;61;20620;-61
2021/07/18 02:41:53;0.00;0.00;0.62;0.00;0.00;0.62;5.90;4.10;;;27.30;38.10;;;;;;2266381;61;20396;-61
2021/07/18 02:44:39;0.00;0.00;0.62;0.00;0.00;0.62;5.93;4.20;;;27.30;38.10;;;;;;2265594;61;20626;-60
2021/07/18 02:47:24;0.00;0.00;0.62;0.00;0.00;0.62;5.93;3.87;;;27.20;38.00;;;;;;2266084;61;20455;-61
2021/07/18 02:50:11;0.00;0.00;0.62;0.00;0.00;0.62;5.17;3.80;;;27.20;38.00;;;;;;2266121;61;20381;-61
2021/07/18 02:52:56;0.00;0.00;0.62;0.00;0.00;0.62;6.93;3.80;;;27.20;38.00;;;;;;2266028;61;20408;-61
2021/07/18 02:55:41;0.00;0.00;0.62;0.00;0.00;0.62;4.83;3.37;;;27.20;38.80;;;;;;2266325;61;20589;-60
2021/07/18 02:58:25;0.00;0.00;0.62;0.00;0.00;0.62;7.83;5.13;;;27.30;38.30;;;;;;2265589;61;20636;-61
2021/07/18 03:01:11;0.00;0.00;0.62;0.00;0.00;0.62;7.57;4.33;;;27.20;38.20;;;;;;2266157;61;20369;-61
2021/07/18 03:03:56;0.00;0.00;0.62;0.00;0.00;0.62;5.50;4.50;;;27.20;38.30;;;;;;2266334;61;20485;-61
2021/07/18 03:06:40;0.00;0.00;0.62;0.00;0.00;0.62;5.87;4.80;;;27.20;38.30;;;;;;2265120;61;20380;-61
2021/07/18 03:09:26;0.00;0.00;0.62;0.00;0.00;0.62;4.47;3.47;;;27.20;38.40;;;;;;2266105;61;20400;-61
2021/07/18 03:12:11;0.00;0.00;0.62;0.00;0.00;0.62;6.17;3.87;;;27.20;38.30;;;;;;2266083;61;20357;-61
2021/07/18 03:14:55;0.00;0.00;0.62;0.00;0.00;0.62;6.13;4.63;;;27.20;38.30;;;;;;2265847;61;20580;-62
2021/07/18 03:17:42;0.00;0.00;0.62;0.00;0.00;0.62;4.90;4.40;;;27.10;38.30;;;;;;2266265;61;20404;-61
2021/07/18 03:20:27;0.00;0.00;0.62;0.00;0.00;0.62;5.30;3.97;;;27.10;38.40;;;;;;2265468;61;20361;-62
2021/07/18 03:23:12;0.00;0.00;0.62;0.00;0.00;0.62;5.57;4.53;;;27.10;38.50;;;;;;2265861;61;20399;-61
2021/07/18 03:25:57;0.00;0.00;0.62;0.00;0.00;0.62;5.77;3.90;;;27.10;38.50;;;;;;2266231;61;20404;-61
2021/07/18 03:28:42;0.00;0.00;0.62;0.00;0.00;0.62;6.47;4.27;;;27.10;38.50;;;;;;2265408;61;20361;-61
2021/07/18 03:31:27;0.00;0.00;0.62;0.00;0.00;0.62;7.93;5.03;;;27.10;38.60;;;;;;2266099;61;20365;-61
2021/07/18 03:34:13;0.00;0.00;0.62;0.00;0.00;0.62;7.60;4.03;;;27.00;38.60;;;;;;2266016;61;20438;-63
2021/07/18 03:36:58;0.00;0.00;0.62;0.00;0.00;0.62;5.40;3.90;;;27.00;38.50;;;;;;2265721;61;20392;-61
2021/07/18 03:39:42;0.00;0.00;0.62;0.00;0.00;0.62;5.53;3.90;;;27.00;38.50;;;;;;2265932;61;20399;-62
2021/07/18 03:42:27;0.00;0.00;0.62;0.00;0.00;0.62;5.00;3.90;;;27.00;38.50;;;;;;2265316;61;20360;-62
2021/07/18 03:45:13;0.00;0.00;0.62;0.00;0.00;0.62;5.27;4.37;;;27.00;38.50;;;;;;2265889;61;20348;-61
2021/07/18 03:47:58;0.00;0.00;0.62;0.00;0.00;0.62;5.87;4.30;;;27.00;38.50;;;;;;2266265;61;20768;-62
2021/07/18 03:50:44;0.00;0.00;0.62;0.00;0.00;0.62;6.00;4.67;;;27.10;38.70;;;;;;2265493;61;20368;-61
2021/07/18 03:53:28;0.00;0.00;0.62;0.00;0.00;0.62;4.20;3.80;;;27.00;38.80;;;;;;2265884;61;20364;-62
2021/07/18 03:56:13;0.00;0.00;0.62;0.00;0.00;0.62;5.13;4.23;;;27.00;38.80;;;;;;2266019;61;20651;-61
2021/07/18 03:58:57;0.00;0.00;0.62;0.00;0.00;0.62;5.90;4.07;;;27.00;38.90;;;;;;2265729;61;20654;-61
2021/07/18 04:01:42;0.00;0.00;0.62;0.00;0.00;0.62;7.53;4.53;;;27.00;38.90;;;;;;2265940;61;20578;-60
2021/07/18 04:04:26;0.00;0.00;0.62;0.00;0.00;0.62;5.13;3.90;;;27.00;38.80;;;;;;2265655;61;20395;-60
2021/07/18 04:07:13;0.00;0.00;0.62;0.00;0.00;0.62;7.07;4.70;;;27.00;38.90;;;;;;2265876;61;20400;-62
2021/07/18 04:09:57;0.00;0.00;0.62;0.00;0.00;0.62;5.40;4.43;;;27.00;38.90;;;;;;2265749;61;20441;-61
2021/07/18 04:12:42;0.00;0.00;0.62;0.00;0.00;0.62;6.33;4.80;;;27.00;38.90;;;;;;2265336;61;20364;-61
2021/07/18 04:15:27;0.00;0.00;0.62;0.00;0.00;0.62;4.70;4.13;;;27.00;38.90;;;;;;2265945;61;20395;-61
2021/07/18 04:18:11;0.00;0.00;0.62;0.00;0.00;0.62;6.70;5.50;;;27.00;38.90;;;;;;2265957;61;20456;-61
2021/07/18 04:20:56;0.00;0.00;0.62;0.00;0.00;0.62;7.10;5.30;;;27.00;38.90;;;;;;2265533;61;20716;-60
2021/07/18 04:23:44;0.00;0.00;0.62;0.00;0.00;0.62;5.53;4.60;;;27.00;39.00;;;;;;2265832;61;20484;-61
2021/07/18 04:26:28;0.00;0.00;0.62;0.00;0.00;0.62;7.03;5.20;;;26.90;39.10;;;;;;2265600;61;20361;-61
2021/07/18 04:29:13;0.00;0.00;0.62;0.00;0.00;0.62;4.80;4.23;;;26.90;39.10;;;;;;2266156;61;20352;-61
2021/07/18 04:31:57;0.00;0.00;0.62;0.00;0.00;0.62;7.73;5.20;;;26.90;39.20;;;;;;2266074;61;20433;-61
2021/07/18 04:34:43;0.00;0.00;0.62;0.00;0.00;0.62;9.27;5.60;;;26.90;39.30;;;;;;2265320;61;20392;-61
2021/07/18 04:37:27;0.00;0.00;0.62;0.00;0.00;0.62;8.33;5.40;;;26.80;39.30;;;;;;2265857;61;20384;-62
2021/07/18 04:40:14;0.00;0.00;0.62;0.00;0.00;0.62;8.47;5.57;;;26.80;39.40;;;;;;2265980;61;20729;-60
2021/07/18 04:42:59;0.00;0.00;0.62;0.00;0.00;0.62;10.20;6.20;;;26.70;39.50;;;;;;2265270;61;20365;-61
2021/07/18 04:45:44;0.00;0.00;0.62;0.00;0.00;0.62;7.00;4.97;;;26.70;39.60;;;;;;2265645;61;20721;-61
2021/07/18 04:48:28;0.00;0.00;0.62;0.00;0.00;0.62;8.10;5.10;;;26.70;39.60;;;;;;2265268;61;20376;-60
2021/07/18 04:51:13;0.00;0.00;0.62;0.00;0.00;0.62;6.17;5.00;;;26.60;39.60;;;;;;2265741;61;20361;-61
2021/07/18 04:53:57;0.00;0.00;0.62;0.00;0.00;0.62;6.17;5.13;;;26.60;39.70;;;;;;2265805;61;20591;-62
2021/07/18 04:56:43;0.00;0.00;0.62;0.00;0.00;0.62;6.13;5.50;;;26.60;39.80;;;;;;2265230;61;20745;-61
2021/07/18 04:59:28;0.00;0.00;0.62;0.00;0.00;0.62;9.43;5.90;;;26.50;39.80;;;;;;2265808;61;20392;-62
2021/07/18 05:02:13;0.00;0.00;0.62;0.00;0.00;0.62;7.27;5.90;;;26.50;40.00;;;;;;2265714;61;20353;-61
2021/07/18 05:04:58;0.00;0.00;0.62;0.00;0.00;0.62;9.33;7.10;;;26.50;40.10;;;;;;2265222;61;20618;-62
2021/07/18 05:07:47;0.00;0.00;0.62;0.00;0.00;0.62;9.40;7.60;;;26.40;40.10;;;;;;2265643;61;20396;-61
2021/07/18 05:10:32;0.00;0.00;0.62;0.00;0.00;0.62;10.23;6.27;;;26.30;40.10;;;;;;2265655;61;20396;-62
2021/07/18 05:13:17;0.00;0.00;0.62;0.00;0.00;0.62;7.67;5.93;;;26.30;40.20;;;;;;2265144;61;20365;-61
2021/07/18 05:16:02;0.00;0.00;0.62;0.00;0.00;0.62;7.70;6.20;;;26.30;40.30;;;;;;2265592;61;20361;-62
2021/07/18 05:18:47;0.00;0.00;0.62;0.00;0.00;0.62;8.60;6.33;;;26.30;40.40;;;;;;2265412;61;20579;-62
2021/07/18 05:21:32;0.00;0.00;0.62;0.00;0.00;0.62;9.60;7.03;;;26.30;40.40;;;;;;2265728;61;20373;-60
2021/07/18 05:24:16;0.00;0.00;0.62;0.00;0.00;0.62;9.83;7.03;;;26.30;40.60;;;;;;2265782;61;20376;-62
2021/07/18 05:27:01;0.00;0.00;0.62;0.00;0.00;0.62;12.47;8.10;;;26.20;40.50;;;;;;2265068;61;20638;-62
2021/07/18 05:29:47;0.00;0.00;0.62;0.00;0.00;0.62;12.50;8.60;;;26.20;40.70;;;;;;2265553;61;20713;-60
2021/07/18 05:32:32;0.00;0.00;0.62;0.00;0.00;0.62;10.20;7.33;;;26.20;40.70;;;;;;2265811;61;20353;-61
2021/07/18 05:35:16;0.00;0.00;0.62;0.00;0.00;0.62;11.27;8.90;;;26.20;40.70;;;;;;2265463;61;20360;-61
2021/07/18 05:38:01;0.00;0.00;0.62;0.00;0.00;0.62;12.03;9.20;;;26.20;41.40;;;;;;2265563;61;20777;-61
2021/07/18 05:40:46;0.00;0.00;0.62;0.00;0.00;0.62;11.13;8.37;;;26.10;40.60;;;;;;2264881;61;20380;-60
2021/07/18 05:43:30;0.00;0.00;0.62;0.00;0.00;0.62;8.63;6.60;;;26.10;40.70;;;;;;2265540;61;20348;-62
2021/07/18 05:46:16;0.00;0.00;0.62;0.00;0.00;0.62;8.20;7.40;;;26.10;40.70;;;;;;2265768;61;20411;-62
2021/07/18 05:49:00;0.00;0.00;0.62;0.00;0.00;0.62;7.90;7.10;;;26.10;40.60;;;;;;2265207;61;20353;-62
2021/07/18 05:51:45;0.00;0.00;0.62;0.00;0.00;0.62;10.30;7.20;;;26.10;40.60;;;;;;2265644;61;20353;-62
2021/07/18 05:54:30;0.00;0.00;0.62;0.00;0.00;0.62;9.20;6.67;;;26.10;40.70;;;;;;2265869;61;20393;-61
2021/07/18 05:57:15;0.00;0.00;0.62;0.00;0.00;0.62;7.73;6.70;;;26.10;40.70;;;;;;2265172;61;20380;-62
2021/07/18 05:59:59;0.00;0.00;0.62;0.00;0.00;0.62;8.67;6.40;;;26.10;40.70;;;;;;2265642;61;20437;-62
2021/07/18 06:02:45;0.00;0.00;0.62;0.00;0.00;0.62;7.07;6.30;;;26.10;40.60;;;;;;2265278;61;20357;-63
2021/07/18 06:05:30;0.00;0.00;0.62;0.00;0.00;0.62;8.60;6.40;;;26.10;40.60;;;;;;2265486;61;20702;-62
2021/07/18 06:08:15;0.00;0.00;0.62;0.00;0.00;0.62;6.70;6.10;;;26.10;40.60;;;;;;2265843;61;20430;-62
2021/07/18 06:10:59;0.00;0.00;0.62;0.00;0.00;0.62;9.93;6.13;;;26.20;40.70;;;;;;2264886;61;20637;-61
2021/07/18 06:13:44;0.00;0.00;0.62;0.00;0.00;0.62;8.80;5.60;;;26.20;40.70;;;;;;2265539;61;20668;-60
2021/07/18 06:16:29;0.00;0.00;0.62;0.00;0.00;0.62;7.40;5.40;;;26.20;40.70;;;;;;2265755;61;20357;-61
2021/07/18 06:19:14;0.00;0.00;0.62;0.00;0.00;0.62;7.67;5.83;;;26.30;40.80;;;;;;2264914;61;20385;-60
2021/07/18 06:21:59;0.00;0.00;0.62;0.00;0.00;0.62;6.60;4.43;;;26.30;40.80;;;;;;2265572;61;20447;-60
2021/07/18 06:24:44;0.00;0.00;0.62;0.00;0.00;0.62;6.13;5.27;;;26.30;40.70;;;;;;2265423;61;20441;-60
2021/07/18 06:27:28;0.00;0.00;0.62;0.00;0.00;0.62;5.70;5.10;;;26.30;40.60;;;;;;2265245;61;20396;-58
2021/07/18 06:30:14;0.00;0.00;0.62;0.00;0.00;0.62;6.90;5.10;;;26.30;40.70;;;;;;2265673;61;20369;-62
2021/07/18 06:32:58;0.00;0.00;0.62;0.00;0.00;0.62;7.80;5.43;;;26.40;40.70;;;;;;2264567;61;20353;-62
2021/07/18 06:35:44;0.00;0.00;0.62;0.00;0.00;0.62;5.60;4.90;;;26.40;40.70;;;;;;2265399;61;20368;-63
2021/07/18 06:38:29;0.00;0.00;0.62;0.00;0.00;0.62;11.20;5.17;;;26.40;40.60;;;;;;2265667;61;20385;-59
2021/07/18 06:41:14;0.00;0.00;0.62;0.00;0.00;0.62;5.90;5.30;;;26.40;40.60;;;;;;2264930;61;20585;-61
2021/07/18 06:43:58;0.00;0.00;0.62;0.00;0.00;0.62;5.90;4.93;;;26.50;40.60;;;;;;2265457;61;20369;-61
2021/07/18 06:46:43;0.00;0.00;0.62;0.00;0.00;0.62;5.87;5.27;;;26.40;40.50;;;;;;2265304;61;20384;-61
2021/07/18 06:49:28;0.00;0.00;0.62;0.00;0.00;0.62;7.23;6.17;;;26.40;40.70;;;;;;2264911;61;20353;-61
2021/07/18 06:52:15;0.00;0.00;0.62;0.00;0.00;0.62;5.73;5.13;;;26.50;40.60;;;;;;2265560;61;20407;-62
2021/07/18 06:55:00;0.00;0.00;0.62;0.00;0.00;0.62;7.43;6.03;;;26.50;40.50;;;;;;2264420;61;20374;-62
2021/07/18 06:57:49;0.00;0.00;0.62;0.00;0.00;0.62;8.27;6.53;;;26.50;40.50;;;;;;2265056;61;20411;-62
2021/07/18 07:00:33;0.00;0.00;0.62;0.00;0.00;0.62;8.07;5.00;;;26.40;40.50;;;;;;2265736;61;20353;-62
2021/07/18 07:03:18;0.00;0.00;0.62;0.00;0.00;0.62;7.20;5.67;;;26.40;40.50;;;;;;2264705;61;20781;-62
2021/07/18 07:06:03;0.00;0.00;0.62;0.00;0.00;0.62;9.13;6.10;;;26.40;40.60;;;;;;2265505;61;20356;-63
2021/07/18 07:08:49;0.00;0.00;0.62;0.00;0.00;0.62;6.93;5.73;;;26.40;40.70;;;;;;2265165;61;20400;-63
2021/07/18 07:11:34;0.00;0.00;0.62;0.00;0.00;0.62;6.33;4.80;;;26.30;40.80;;;;;;2265014;61;20358;-61
2021/07/18 07:14:18;0.00;0.00;0.62;0.00;0.00;0.62;7.00;5.40;;;26.40;40.90;;;;;;2264789;61;20408;-63
2021/07/18 07:17:04;0.00;0.00;0.62;0.00;0.00;0.62;5.60;5.00;;;26.40;40.80;;;;;;2264962;61;20409;-60
2021/07/18 07:19:49;0.00;0.00;0.62;0.00;0.00;0.62;6.53;5.50;;;26.40;40.80;;;;;;2266209;61;20468;-63
2021/07/18 07:22:36;0.00;0.00;0.62;0.00;0.00;0.62;8.07;6.10;;;26.40;40.80;;;;;;2266218;61;20575;-65
2021/07/18 07:25:22;0.00;0.00;0.62;0.00;0.00;0.62;9.47;5.80;;;26.40;40.80;;;;;;2265592;61;20618;-63
2021/07/18 07:28:06;0.00;0.00;0.62;0.00;0.00;0.62;7.17;5.43;;;26.40;40.80;;;;;;2266106;61;20508;-62
2021/07/18 07:30:52;0.00;0.00;0.62;0.00;0.00;0.62;5.63;4.57;;;26.30;40.80;;;;;;2266485;61;20756;-63
2021/07/18 07:33:36;0.00;0.00;0.62;0.00;0.00;0.62;7.33;4.70;;;26.40;40.80;;;;;;2265833;61;20399;-63
2021/07/18 07:36:22;0.00;0.00;0.62;0.00;0.00;0.62;5.50;4.70;;;26.40;40.80;;;;;;2266084;61;20392;-63
2021/07/18 07:39:07;0.00;0.00;0.62;0.00;0.00;0.62;6.23;5.03;;;26.40;40.80;;;;;;2265290;61;20381;-62
2021/07/18 07:41:53;0.00;0.00;0.62;0.00;0.00;0.62;7.13;5.07;;;26.40;40.80;;;;;;2266079;61;20663;-63
2021/07/18 07:44:38;0.00;0.00;0.62;0.00;0.00;0.62;9.37;4.70;;;26.50;40.90;;;;;;2265749;61;20383;-64
2021/07/18 07:47:22;0.00;0.00;0.62;0.00;0.00;0.62;5.90;4.80;;;26.50;40.90;;;;;;2265449;61;20385;-63
2021/07/18 07:50:09;0.00;0.00;0.62;0.00;0.00;0.62;5.60;5.00;;;26.50;40.90;;;;;;2266294;61;20356;-63
2021/07/18 07:52:54;0.00;0.00;0.62;0.00;0.00;0.62;5.53;4.87;;;26.50;40.80;;;;;;2266092;61;20360;-64
2021/07/18 07:55:39;0.00;0.00;0.62;0.00;0.00;0.62;5.80;4.87;;;26.50;40.80;;;;;;2265830;61;20705;-61
2021/07/18 07:58:25;0.00;0.00;0.62;0.00;0.00;0.62;8.57;5.17;;;26.50;40.70;;;;;;2266022;61;20771;-64
2021/07/18 08:01:10;0.00;0.00;0.62;0.00;0.00;0.62;5.73;4.87;;;26.60;40.60;;;;;;2265825;61;20365;-63
2021/07/18 08:03:54;0.00;0.00;0.62;0.00;0.00;0.62;6.77;5.60;;;26.60;40.60;;;;;;2265901;61;20362;-61
2021/07/18 08:06:39;0.00;0.00;0.62;0.00;0.00;0.62;5.03;4.53;;;26.60;40.50;;;;;;2265993;61;20373;-62
2021/07/18 08:09:24;0.00;0.00;0.62;0.00;0.00;0.62;5.90;5.30;;;26.60;40.40;;;;;;2265343;61;20411;-62
2021/07/18 08:12:08;0.00;0.00;0.62;0.00;0.00;0.62;6.77;5.30;;;26.60;40.40;;;;;;2265970;61;20352;-61
2021/07/18 08:14:55;0.00;0.00;0.62;0.00;0.00;0.62;4.93;4.43;;;26.70;40.40;;;;;;2266090;61;20349;-60
2021/07/18 08:17:40;0.00;0.00;0.62;0.00;0.00;0.62;7.63;5.83;;;26.70;40.30;;;;;;2265403;61;20377;-63
2021/07/18 08:20:27;0.00;0.00;0.62;0.00;0.00;0.62;8.43;5.63;;;26.70;40.20;;;;;;2265904;61;20397;-62
2021/07/18 08:23:11;0.00;0.00;0.62;0.00;0.00;0.62;6.70;5.60;;;26.70;40.10;;;;;;2265584;61;20357;-63
2021/07/18 08:25:56;0.00;0.00;0.62;0.00;0.00;0.62;6.40;4.80;;;26.80;40.10;;;;;;2265765;61;20388;-62
2021/07/18 08:28:41;0.00;0.00;0.62;0.00;0.00;0.62;5.87;5.17;;;26.70;40.00;;;;;;2266037;61;20352;-62
2021/07/18 08:31:27;0.00;0.00;0.62;0.00;0.00;0.62;8.33;5.20;;;26.70;40.00;;;;;;2265430;61;20395;-61
2021/07/18 08:34:12;0.00;0.00;0.62;0.00;0.00;0.62;6.13;5.30;;;26.70;39.90;;;;;;2265801;61;20396;-62
2021/07/18 08:36:57;0.00;0.00;0.62;0.00;0.00;0.62;5.57;5.07;;;26.70;40.00;;;;;;2265946;61;20422;-66
2021/07/18 08:39:42;0.00;0.00;0.62;0.00;0.00;0.62;5.40;4.83;;;26.70;40.00;;;;;;2265480;61;20451;-61
2021/07/18 08:42:27;0.00;0.00;0.62;0.00;0.00;0.62;5.87;5.23;;;26.70;39.90;;;;;;2265679;61;20408;-62
2021/07/18 08:45:12;0.00;0.00;0.62;0.00;0.00;0.62;6.73;4.87;;;26.80;39.90;;;;;;2265625;61;20587;-62
2021/07/18 08:47:58;0.00;0.00;0.62;0.00;0.00;0.62;5.10;4.20;;;26.80;40.00;;;;;;2265763;61;20602;-62
2021/07/18 08:50:43;0.00;0.00;0.62;0.00;0.00;0.62;7.30;5.87;;;26.80;39.90;;;;;;2265907;61;20361;-62
2021/07/18 08:53:28;0.00;0.00;0.62;0.00;0.00;0.62;8.33;5.67;;;26.80;39.90;;;;;;2265208;61;20353;-62
2021/07/18 08:56:15;0.00;0.00;0.62;0.00;0.00;0.62;5.93;5.10;;;26.80;39.90;;;;;;2265594;61;20356;-60
2021/07/18 08:59:02;0.00;0.00;0.62;0.00;0.00;0.62;5.73;4.90;;;26.80;39.80;;;;;;2265952;61;20376;-60
2021/07/18 09:01:46;0.00;0.00;0.62;0.00;0.00;0.62;6.87;5.47;;;26.80;39.70;;;;;;2265286;61;20359;-60
2021/07/18 09:04:32;0.00;0.00;0.62;0.00;0.00;0.62;8.40;5.50;;;26.90;39.80;;;;;;2265555;61;20376;-61
2021/07/18 09:07:19;0.00;0.00;0.62;0.00;0.00;0.62;8.97;5.77;;;26.90;39.70;;;;;;2265601;61;20414;-61
2021/07/18 09:10:07;0.00;0.00;0.62;0.00;0.00;0.62;5.73;5.30;;;26.90;39.60;;;;;;2265515;61;20417;-60
2021/07/18 09:13:05;0.00;0.00;0.62;0.00;0.00;0.62;7.10;5.90;;;26.90;40.20;;;;;;2265743;61;20419;-60
2021/07/18 09:15:53;0.00;0.00;0.62;0.00;0.00;0.62;5.93;5.37;;;26.90;39.50;;;;;;2265219;61;20358;-62
2021/07/18 09:18:37;0.00;0.00;0.62;0.00;0.00;0.62;6.50;5.20;;;26.90;39.50;;;;;;2265641;61;20373;-61
2021/07/18 09:21:23;0.00;0.00;0.62;0.00;0.00;0.62;6.00;5.10;;;26.90;39.50;;;;;;2265968;61;20400;-61
2021/07/18 09:24:18;0.00;0.00;0.62;0.00;0.00;0.62;5.97;5.40;;;27.00;39.50;;;;;;2265313;61;20361;-61
2021/07/18 09:27:07;0.00;0.00;0.62;0.00;0.00;0.62;7.03;5.63;;;27.00;39.40;;;;;;2265474;61;20647;-62
2021/07/18 09:29:54;0.00;0.00;0.62;0.00;0.00;0.62;6.20;5.60;;;27.00;39.30;;;;;;2265638;61;20721;-61
2021/07/18 09:32:42;0.00;0.00;0.62;0.00;0.00;0.62;5.50;4.80;;;27.00;39.20;;;;;;2265719;61;20622;-60
2021/07/18 09:35:28;0.00;0.00;0.62;0.00;0.00;0.62;5.23;4.70;;;27.00;39.20;;;;;;2265917;61;20356;-61
2021/07/18 09:38:23;0.00;0.00;0.62;0.00;0.00;0.62;5.00;4.50;;;26.90;39.20;;;;;;2264941;61;20442;-60
2021/07/18 09:41:08;0.00;0.00;0.62;0.00;0.00;0.62;4.80;4.40;;;27.00;39.30;;;;;;2265417;61;20399;-61
2021/07/18 09:43:58;0.00;0.00;0.62;0.00;0.00;0.62;4.53;4.13;;;27.00;39.30;;;;;;2265873;61;20364;-59
2021/07/18 09:46:43;0.00;0.00;0.62;0.00;0.00;0.62;6.27;5.77;;;27.00;39.30;;;;;;2265288;61;20584;-62
2021/07/18 09:49:32;0.00;0.00;0.62;0.00;0.00;0.62;5.50;5.00;;;27.00;39.30;;;;;;2265758;61;20356;-61
2021/07/18 09:52:20;0.00;0.00;0.62;0.00;0.00;0.62;5.60;4.70;;;27.00;39.30;;;;;;2265366;61;20582;-61
2021/07/18 09:55:19;0.00;0.00;0.62;0.00;0.00;0.62;5.70;5.13;;;27.00;39.30;;;;;;2265298;61;20373;-61
2021/07/18 09:58:05;0.00;0.00;0.62;0.00;0.00;0.62;5.40;4.90;;;27.00;39.30;;;;;;2265779;61;20408;-61
2021/07/18 10:00:50;0.00;0.00;0.62;0.00;0.00;0.62;5.87;5.37;;;27.00;39.20;;;;;;2265093;61;20361;-61
2021/07/18 10:03:35;0.00;0.00;0.62;0.00;0.00;0.62;5.80;5.30;;;27.00;39.30;;;;;;2265405;61;20427;-61
2021/07/18 10:06:23;0.00;0.00;0.62;0.00;0.00;0.62;7.27;4.67;;;27.10;39.90;;;;;;2265463;61;20360;-60
2021/07/18 10:09:10;0.00;0.00;0.62;0.00;0.00;0.62;4.87;4.40;;;27.10;39.20;;;;;;2264934;61;20713;-61
2021/07/18 10:11:56;0.00;0.00;0.62;0.00;0.00;0.62;6.10;5.60;;;27.10;39.20;;;;;;2265738;61;20645;-61
2021/07/18 10:14:42;0.00;0.00;0.62;0.00;0.00;0.62;5.17;4.77;;;27.10;39.20;;;;;;2264528;61;20428;-61
2021/07/18 10:17:29;0.00;0.00;0.62;0.00;0.00;0.62;5.53;4.90;;;27.20;39.30;;;;;;2265582;61;20376;-61
2021/07/18 10:20:14;0.00;0.00;0.62;0.00;0.00;0.62;5.10;4.60;;;27.20;39.30;;;;;;2265849;61;20403;-62
2021/07/18 10:22:59;0.00;0.00;0.62;0.00;0.00;0.62;6.07;5.10;;;27.20;39.20;;;;;;2264720;61;20365;-61
2021/07/18 10:25:46;0.00;0.00;0.62;0.00;0.00;0.62;5.00;4.50;;;27.20;39.20;;;;;;2265506;61;20357;-61
2021/07/18 10:28:33;0.00;0.00;0.62;0.00;0.00;0.62;6.50;4.80;;;27.20;39.10;;;;;;2265632;61;20380;-62
2021/07/18 10:31:25;0.00;0.00;0.62;0.00;0.00;0.62;4.93;4.53;;;27.20;39.10;;;;;;2264840;61;20805;-61
2021/07/18 10:34:10;0.00;0.00;0.62;0.00;0.00;0.62;5.43;4.20;;;27.30;39.10;;;;;;2265543;61;20353;-61
2021/07/18 10:36:55;0.00;0.00;0.62;0.00;0.00;0.62;5.97;5.40;;;27.30;39.00;;;;;;2264794;61;20377;-60
2021/07/18 10:39:42;0.00;0.00;0.62;0.00;0.00;0.62;7.30;4.73;;;27.30;38.90;;;;;;2265445;61;20413;-61
2021/07/18 10:42:34;0.00;0.00;0.62;0.00;0.00;0.62;4.80;4.40;;;27.40;38.90;;;;;;2265663;61;20437;-60
2021/07/18 10:45:23;0.00;0.00;0.62;0.00;0.00;0.62;4.93;4.43;;;27.40;38.90;;;;;;2264872;61;20365;-61
2021/07/18 10:48:09;0.00;0.00;0.62;0.00;0.00;0.62;5.00;4.50;;;27.40;38.70;;;;;;2265608;61;20420;-61
2021/07/18 10:50:58;0.00;0.00;0.62;0.00;0.00;0.62;4.90;4.40;;;27.40;38.70;;;;;;2266014;61;20396;-61
2021/07/18 10:53:43;0.00;0.00;0.62;0.00;0.00;0.62;5.93;5.37;;;27.40;38.70;;;;;;2266027;61;20449;-61